Airfield :
LOGIN :

Register | Disclaimer

   EN    FR    IT 

 










Legend :    VFR   Marginal VFR   IFR   Intensive IFR   Very Intensive IFR
Visi :
Ceiling :
>= 8 km
>= 3000ft
5 to 8 km
1000 to 3000 ft
1500m to 5 km
500 to 1000 ft
800 to 1500m
200 to 500 ft
< 800m
< 200 ft
Symbols :   Thunderstorms  Fog  Heavy snow  Heavy precipitations  Wind > 20 kt
SIGMETs :     Misc.  Thunderstorms  Icing  Turbulence  Mountain Waves  Volcanic Ashes







- Airport Elevation : 425 ft
- IATA code : DTM


EDLW - Dortmund

CURRENT METAR :
  • 210750Z 20009KT CAVOK 07/04 Q1025

EXPIRED METARs :
  • 210720Z 20009KT CAVOK 05/03 Q1025
  • 210650Z 20009KT CAVOK 05/03 Q1025
  • 210620Z 20011KT CAVOK 05/03 Q1025
  • 210550Z 20010KT CAVOK 05/03 Q1024
  • 210520Z 20009KT CAVOK 05/03 Q1025
  • 210450Z 20008KT CAVOK 05/03 Q1025

TAF TAF EDLW
Valid from the 21 at 06:00 until the 22 at 06:00 UTC


210500Z 2106/2206 22009KT 9999 SCT045
BECMG 2118/2121 28004KT
TEMPO 2118/2202 4500 -RA BR BKN008
TEMPO 2202/2206 3500 -DZ BR BKN004
No reported NOTAMs for that airfield.



MET'MAP, your aeronautical weather chart ! - Copyright ORBIFLY December 2007 - Disclaimer

ORBIFLY MET'MAP TEAM :

Programming & Development : Alexandra Zaïnal
Concept & Development : Baudouin d'Aumeries
Co-Development & Prog : Marc-Olivier Méhu
Technical & hardware support : Manuel Goepfert

Contact : metmap@orbifly.com




SOURCES & CREDITS :

   NOAA